sensor_id;sensor_type;location;lat;lon;timestamp;temperature;humidity
27276;DHT22;14772;47.398;8.080;2022-11-20T00:01:35;7.80;99.90
27276;DHT22;14772;47.398;8.080;2022-11-20T00:06:33;7.80;99.90
27276;DHT22;14772;47.398;8.080;2022-11-20T00:11:31;7.70;99.90
27276;DHT22;14772;47.398;8.080;2022-11-20T00:16:31;7.70;99.90
27276;DHT22;14772;47.398;8.080;2022-11-20T00:21:29;7.70;99.90
27276;DHT22;14772;47.398;8.080;2022-11-20T00:26:27;7.60;99.90
27276;DHT22;14772;47.398;8.080;2022-11-20T00:31:25;7.60;99.90
27276;DHT22;14772;47.398;8.080;2022-11-20T00:36:25;7.60;99.90
27276;DHT22;14772;47.398;8.080;2022-11-20T00:41:23;7.50;99.90
27276;DHT22;14772;47.398;8.080;2022-11-20T00:46:21;7.50;99.90
27276;DHT22;14772;47.398;8.080;2022-11-20T00:51:21;7.40;99.90
27276;DHT22;14772;47.398;8.080;2022-11-20T00:56:19;7.30;99.90
27276;DHT22;14772;47.398;8.080;2022-11-20T01:01:18;7.10;99.90
27276;DHT22;14772;47.398;8.080;2022-11-20T01:06:18;7.30;99.90
27276;DHT22;14772;47.398;8.080;2022-11-20T01:11:18;7.40;99.90
27276;DHT22;14772;47.398;8.080;2022-11-20T01:16:17;7.40;99.90
27276;DHT22;14772;47.398;8.080;2022-11-20T01:21:17;7.40;99.90
27276;DHT22;14772;47.398;8.080;2022-11-20T01:26:17;7.40;99.90
27276;DHT22;14772;47.398;8.080;2022-11-20T01:31:16;7.10;99.90
27276;DHT22;14772;47.398;8.080;2022-11-20T01:36:14;7.10;99.90
27276;DHT22;14772;47.398;8.080;2022-11-20T01:41:13;7.30;99.90
27276;DHT22;14772;47.398;8.080;2022-11-20T01:46:16;7.40;99.90
27276;DHT22;14772;47.398;8.080;2022-11-20T01:51:19;7.40;99.90
27276;DHT22;14772;47.398;8.080;2022-11-20T01:56:16;7.40;99.90
27276;DHT22;14772;47.398;8.080;2022-11-20T02:01:14;7.40;99.90
27276;DHT22;14772;47.398;8.080;2022-11-20T02:06:14;7.40;99.90
27276;DHT22;14772;47.398;8.080;2022-11-20T02:11:13;7.20;99.90
27276;DHT22;14772;47.398;8.080;2022-11-20T02:16:20;7.20;99.90
27276;DHT22;14772;47.398;8.080;2022-11-20T02:21:33;7.30;99.90
27276;DHT22;14772;47.398;8.080;2022-11-20T02:26:32;7.40;99.90
27276;DHT22;14772;47.398;8.080;2022-11-20T02:31:36;7.40;99.90
27276;DHT22;14772;47.398;8.080;2022-11-20T02:36:35;7.40;99.90
27276;DHT22;14772;47.398;8.080;2022-11-20T02:41:35;7.20;99.90
27276;DHT22;14772;47.398;8.080;2022-11-20T02:46:33;7.20;99.90
27276;DHT22;14772;47.398;8.080;2022-11-20T02:51:31;7.00;99.90
27276;DHT22;14772;47.398;8.080;2022-11-20T02:56:29;7.30;99.90
27276;DHT22;14772;47.398;8.080;2022-11-20T03:01:26;7.30;99.90
27276;DHT22;14772;47.398;8.080;2022-11-20T03:06:23;7.40;99.90
27276;DHT22;14772;47.398;8.080;2022-11-20T03:11:21;7.40;99.90
27276;DHT22;14772;47.398;8.080;2022-11-20T03:16:20;7.40;99.90
27276;DHT22;14772;47.398;8.080;2022-11-20T03:21:18;7.30;99.90
27276;DHT22;14772;47.398;8.080;2022-11-20T03:26:17;7.40;99.90
27276;DHT22;14772;47.398;8.080;2022-11-20T03:31:16;7.20;99.90
27276;DHT22;14772;47.398;8.080;2022-11-20T03:36:17;7.30;99.90
27276;DHT22;14772;47.398;8.080;2022-11-20T03:41:16;7.30;99.90
27276;DHT22;14772;47.398;8.080;2022-11-20T03:46:13;7.30;99.90
27276;DHT22;14772;47.398;8.080;2022-11-20T03:51:13;7.40;99.90
27276;DHT22;14772;47.398;8.080;2022-11-20T03:56:11;7.40;99.90
27276;DHT22;14772;47.398;8.080;2022-11-20T04:01:10;7.20;99.90
27276;DHT22;14772;47.398;8.080;2022-11-20T04:06:10;7.20;99.90
27276;DHT22;14772;47.398;8.080;2022-11-20T04:11:12;7.20;99.90
27276;DHT22;14772;47.398;8.080;2022-11-20T04:16:10;7.30;99.90
27276;DHT22;14772;47.398;8.080;2022-11-20T04:21:07;7.10;99.90
27276;DHT22;14772;47.398;8.080;2022-11-20T04:26:07;7.10;99.90
27276;DHT22;14772;47.398;8.080;2022-11-20T04:31:06;6.70;99.90
27276;DHT22;14772;47.398;8.080;2022-11-20T04:36:06;6.90;99.90
27276;DHT22;14772;47.398;8.080;2022-11-20T04:41:05;6.90;99.90
27276;DHT22;14772;47.398;8.080;2022-11-20T04:46:03;7.00;99.90
27276;DHT22;14772;47.398;8.080;2022-11-20T04:51:04;7.00;99.90
27276;DHT22;14772;47.398;8.080;2022-11-20T04:56:04;6.70;99.90
27276;DHT22;14772;47.398;8.080;2022-11-20T05:01:02;6.80;99.90
27276;DHT22;14772;47.398;8.080;2022-11-20T05:06:01;6.80;99.90
27276;DHT22;14772;47.398;8.080;2022-11-20T05:11:01;6.90;99.90
27276;DHT22;14772;47.398;8.080;2022-11-20T05:16:02;6.80;99.90
27276;DHT22;14772;47.398;8.080;2022-11-20T05:21:00;6.90;99.90
27276;DHT22;14772;47.398;8.080;2022-11-20T05:25:58;6.90;99.90
27276;DHT22;14772;47.398;8.080;2022-11-20T05:30:55;7.00;99.90
27276;DHT22;14772;47.398;8.080;2022-11-20T05:35:52;6.70;99.90
27276;DHT22;14772;47.398;8.080;2022-11-20T05:40:50;6.90;99.90
27276;DHT22;14772;47.398;8.080;2022-11-20T05:45:53;7.10;99.90
27276;DHT22;14772;47.398;8.080;2022-11-20T05:50:50;7.20;99.90
27276;DHT22;14772;47.398;8.080;2022-11-20T05:55:55;7.20;99.90
27276;DHT22;14772;47.398;8.080;2022-11-20T06:00:46;7.30;99.90
27276;DHT22;14772;47.398;8.080;2022-11-20T06:05:43;7.30;99.90
27276;DHT22;14772;47.398;8.080;2022-11-20T06:10:40;7.30;99.90
27276;DHT22;14772;47.398;8.080;2022-11-20T06:15:37;7.30;99.90
27276;DHT22;14772;47.398;8.080;2022-11-20T06:20:35;7.00;99.90
27276;DHT22;14772;47.398;8.080;2022-11-20T06:25:32;7.20;99.90
27276;DHT22;14772;47.398;8.080;2022-11-20T06:30:29;7.20;99.90
27276;DHT22;14772;47.398;8.080;2022-11-20T06:35:26;7.30;99.90
27276;DHT22;14772;47.398;8.080;2022-11-20T06:40:23;7.30;99.90
27276;DHT22;14772;47.398;8.080;2022-11-20T06:45:21;7.30;99.90
27276;DHT22;14772;47.398;8.080;2022-11-20T06:50:18;7.40;99.90
27276;DHT22;14772;47.398;8.080;2022-11-20T06:55:15;7.20;99.90
27276;DHT22;14772;47.398;8.080;2022-11-20T07:00:14;7.20;99.90
27276;DHT22;14772;47.398;8.080;2022-11-20T07:05:11;7.20;99.90
27276;DHT22;14772;47.398;8.080;2022-11-20T07:10:10;7.30;99.90
27276;DHT22;14772;47.398;8.080;2022-11-20T07:15:08;7.40;99.90
27276;DHT22;14772;47.398;8.080;2022-11-20T07:20:07;7.40;99.90
27276;DHT22;14772;47.398;8.080;2022-11-20T07:25:06;7.50;99.90
27276;DHT22;14772;47.398;8.080;2022-11-20T07:30:05;7.50;99.90
27276;DHT22;14772;47.398;8.080;2022-11-20T07:35:03;7.60;99.90
27276;DHT22;14772;47.398;8.080;2022-11-20T07:40:01;7.60;99.90
27276;DHT22;14772;47.398;8.080;2022-11-20T07:44:59;7.60;99.90
27276;DHT22;14772;47.398;8.080;2022-11-20T07:49:56;7.60;99.90
27276;DHT22;14772;47.398;8.080;2022-11-20T07:54:53;7.60;99.90
27276;DHT22;14772;47.398;8.080;2022-11-20T07:59:50;7.70;99.90
27276;DHT22;14772;47.398;8.080;2022-11-20T08:04:47;7.70;99.90
27276;DHT22;14772;47.398;8.080;2022-11-20T08:09:44;7.80;99.90
27276;DHT22;14772;47.398;8.080;2022-11-20T08:14:42;7.80;99.90
27276;DHT22;14772;47.398;8.080;2022-11-20T08:19:39;7.80;99.90
27276;DHT22;14772;47.398;8.080;2022-11-20T08:24:37;7.80;99.90
27276;DHT22;14772;47.398;8.080;2022-11-20T08:29:34;7.90;99.90
27276;DHT22;14772;47.398;8.080;2022-11-20T08:34:31;7.80;99.90
27276;DHT22;14772;47.398;8.080;2022-11-20T08:39:28;7.90;99.90
27276;DHT22;14772;47.398;8.080;2022-11-20T08:44:26;8.00;99.90
27276;DHT22;14772;47.398;8.080;2022-11-20T08:49:23;8.10;99.90
27276;DHT22;14772;47.398;8.080;2022-11-20T08:54:20;8.10;99.90
27276;DHT22;14772;47.398;8.080;2022-11-20T08:59:17;8.10;99.90
27276;DHT22;14772;47.398;8.080;2022-11-20T09:04:14;8.20;99.90
27276;DHT22;14772;47.398;8.080;2022-11-20T09:09:12;8.20;99.90
27276;DHT22;14772;47.398;8.080;2022-11-20T09:14:09;8.20;99.90
27276;DHT22;14772;47.398;8.080;2022-11-20T09:19:06;8.20;99.90
27276;DHT22;14772;47.398;8.080;2022-11-20T09:24:05;8.30;99.90
27276;DHT22;14772;47.398;8.080;2022-11-20T09:29:02;8.30;99.90
27276;DHT22;14772;47.398;8.080;2022-11-20T09:34:00;8.30;99.90
27276;DHT22;14772;47.398;8.080;2022-11-20T09:38:57;8.50;99.90
27276;DHT22;14772;47.398;8.080;2022-11-20T09:43:58;8.60;99.90
27276;DHT22;14772;47.398;8.080;2022-11-20T09:49:03;8.60;99.90
27276;DHT22;14772;47.398;8.080;2022-11-20T09:54:09;8.60;99.90
27276;DHT22;14772;47.398;8.080;2022-11-20T09:59:07;8.80;99.90
27276;DHT22;14772;47.398;8.080;2022-11-20T10:04:10;8.80;99.90
27276;DHT22;14772;47.398;8.080;2022-11-20T10:09:18;8.70;99.90
27276;DHT22;14772;47.398;8.080;2022-11-20T10:14:22;8.80;99.90
27276;DHT22;14772;47.398;8.080;2022-11-20T10:19:30;8.90;99.90
27276;DHT22;14772;47.398;8.080;2022-11-20T10:24:50;9.00;99.90
27276;DHT22;14772;47.398;8.080;2022-11-20T10:29:52;9.00;99.90
27276;DHT22;14772;47.398;8.080;2022-11-20T10:34:51;9.20;99.90
27276;DHT22;14772;47.398;8.080;2022-11-20T10:39:53;9.30;99.90
27276;DHT22;14772;47.398;8.080;2022-11-20T10:44:53;9.40;99.90
27276;DHT22;14772;47.398;8.080;2022-11-20T10:49:53;9.40;99.90
27276;DHT22;14772;47.398;8.080;2022-11-20T10:54:56;9.30;99.90
27276;DHT22;14772;47.398;8.080;2022-11-20T11:00:05;9.40;99.90
27276;DHT22;14772;47.398;8.080;2022-11-20T11:05:12;9.50;99.90
27276;DHT22;14772;47.398;8.080;2022-11-20T11:10:17;9.50;99.90
27276;DHT22;14772;47.398;8.080;2022-11-20T11:15:25;9.80;99.90
27276;DHT22;14772;47.398;8.080;2022-11-20T11:20:24;9.90;99.90
27276;DHT22;14772;47.398;8.080;2022-11-20T11:25:25;10.00;99.90
27276;DHT22;14772;47.398;8.080;2022-11-20T11:30:24;10.00;99.90
27276;DHT22;14772;47.398;8.080;2022-11-20T11:35:25;9.90;99.90
27276;DHT22;14772;47.398;8.080;2022-11-20T11:40:23;9.90;99.90
27276;DHT22;14772;47.398;8.080;2022-11-20T11:45:21;9.80;99.90
27276;DHT22;14772;47.398;8.080;2022-11-20T11:50:21;9.90;99.90
27276;DHT22;14772;47.398;8.080;2022-11-20T11:55:25;10.00;99.90
27276;DHT22;14772;47.398;8.080;2022-11-20T12:00:23;10.30;99.90
27276;DHT22;14772;47.398;8.080;2022-11-20T12:05:24;10.50;99.90
27276;DHT22;14772;47.398;8.080;2022-11-20T12:10:24;10.70;99.90
27276;DHT22;14772;47.398;8.080;2022-11-20T12:15:28;10.60;99.90
27276;DHT22;14772;47.398;8.080;2022-11-20T12:20:28;10.70;99.90
27276;DHT22;14772;47.398;8.080;2022-11-20T12:25:29;10.70;99.90
27276;DHT22;14772;47.398;8.080;2022-11-20T12:30:27;10.70;99.90
27276;DHT22;14772;47.398;8.080;2022-11-20T12:41:02;11.00;99.90
27276;DHT22;14772;47.398;8.080;2022-11-20T12:46:18;11.10;99.90
27276;DHT22;14772;47.398;8.080;2022-11-20T12:51:44;11.20;99.90
27276;DHT22;14772;47.398;8.080;2022-11-20T12:56:46;11.50;99.90
27276;DHT22;14772;47.398;8.080;2022-11-20T13:01:47;11.70;99.90
27276;DHT22;14772;47.398;8.080;2022-11-20T13:06:44;12.00;99.90
27276;DHT22;14772;47.398;8.080;2022-11-20T13:11:44;12.10;99.90
27276;DHT22;14772;47.398;8.080;2022-11-20T13:16:46;11.90;99.90
27276;DHT22;14772;47.398;8.080;2022-11-20T13:21:46;11.80;99.90
27276;DHT22;14772;47.398;8.080;2022-11-20T13:26:43;11.50;99.90
27276;DHT22;14772;47.398;8.080;2022-11-20T13:31:42;11.60;99.90
27276;DHT22;14772;47.398;8.080;2022-11-20T13:36:49;11.80;99.90
27276;DHT22;14772;47.398;8.080;2022-11-20T13:41:53;12.30;99.90
27276;DHT22;14772;47.398;8.080;2022-11-20T13:46:51;12.30;99.90
27276;DHT22;14772;47.398;8.080;2022-11-20T13:51:49;12.40;99.90
27276;DHT22;14772;47.398;8.080;2022-11-20T13:56:58;12.60;99.90
27276;DHT22;14772;47.398;8.080;2022-11-20T14:01:55;12.70;99.90
27276;DHT22;14772;47.398;8.080;2022-11-20T14:06:53;13.00;99.80
27276;DHT22;14772;47.398;8.080;2022-11-20T14:11:50;13.30;99.70
27276;DHT22;14772;47.398;8.080;2022-11-20T14:16:49;13.30;99.30
27276;DHT22;14772;47.398;8.080;2022-11-20T14:21:47;13.50;98.40
27276;DHT22;14772;47.398;8.080;2022-11-20T14:26:45;13.50;98.40
27276;DHT22;14772;47.398;8.080;2022-11-20T14:31:43;13.50;98.50
27276;DHT22;14772;47.398;8.080;2022-11-20T14:36:43;13.50;97.40
27276;DHT22;14772;47.398;8.080;2022-11-20T14:41:49;13.20;96.80
27276;DHT22;14772;47.398;8.080;2022-11-20T14:46:41;12.90;96.90
27276;DHT22;14772;47.398;8.080;2022-11-20T14:51:40;12.80;97.80
27276;DHT22;14772;47.398;8.080;2022-11-20T14:56:37;12.50;98.40
27276;DHT22;14772;47.398;8.080;2022-11-20T15:01:35;12.20;99.00
27276;DHT22;14772;47.398;8.080;2022-11-20T15:06:32;11.90;99.60
27276;DHT22;14772;47.398;8.080;2022-11-20T15:11:32;11.80;99.90
27276;DHT22;14772;47.398;8.080;2022-11-20T15:16:30;11.70;99.90
27276;DHT22;14772;47.398;8.080;2022-11-20T15:21:27;11.00;99.90
27276;DHT22;14772;47.398;8.080;2022-11-20T15:26:26;11.00;99.90
27276;DHT22;14772;47.398;8.080;2022-11-20T15:31:24;11.00;99.90
27276;DHT22;14772;47.398;8.080;2022-11-20T15:36:21;11.00;99.90
27276;DHT22;14772;47.398;8.080;2022-11-20T15:41:18;11.00;99.90
27276;DHT22;14772;47.398;8.080;2022-11-20T15:46:18;10.80;99.90
27276;DHT22;14772;47.398;8.080;2022-11-20T15:51:21;10.70;99.90
27276;DHT22;14772;47.398;8.080;2022-11-20T15:56:38;10.60;99.90
27276;DHT22;14772;47.398;8.080;2022-11-20T16:01:36;10.50;99.90
27276;DHT22;14772;47.398;8.080;2022-11-20T16:06:33;10.40;99.90
27276;DHT22;14772;47.398;8.080;2022-11-20T16:11:30;10.30;99.90
27276;DHT22;14772;47.398;8.080;2022-11-20T16:16:29;10.20;99.90
27276;DHT22;14772;47.398;8.080;2022-11-20T16:21:27;10.20;99.90
27276;DHT22;14772;47.398;8.080;2022-11-20T16:26:24;10.10;99.90
27276;DHT22;14772;47.398;8.080;2022-11-20T16:31:22;10.10;99.90
27276;DHT22;14772;47.398;8.080;2022-11-20T16:36:20;10.00;99.90
27276;DHT22;14772;47.398;8.080;2022-11-20T16:41:18;10.00;99.90
27276;DHT22;14772;47.398;8.080;2022-11-20T16:46:16;9.90;99.90
27276;DHT22;14772;47.398;8.080;2022-11-20T16:51:13;9.90;99.90
27276;DHT22;14772;47.398;8.080;2022-11-20T16:56:12;9.90;99.90
27276;DHT22;14772;47.398;8.080;2022-11-20T17:01:11;9.80;99.90
27276;DHT22;14772;47.398;8.080;2022-11-20T17:06:13;9.70;99.90
27276;DHT22;14772;47.398;8.080;2022-11-20T17:11:12;9.80;99.90
27276;DHT22;14772;47.398;8.080;2022-11-20T17:16:10;9.80;99.90
27276;DHT22;14772;47.398;8.080;2022-11-20T17:21:08;9.80;99.90
27276;DHT22;14772;47.398;8.080;2022-11-20T17:26:06;9.70;99.90
27276;DHT22;14772;47.398;8.080;2022-11-20T17:31:05;9.70;99.90
27276;DHT22;14772;47.398;8.080;2022-11-20T17:36:04;9.70;99.90
27276;DHT22;14772;47.398;8.080;2022-11-20T17:41:02;9.70;99.90
27276;DHT22;14772;47.398;8.080;2022-11-20T17:46:00;9.70;99.90
27276;DHT22;14772;47.398;8.080;2022-11-20T17:51:00;9.70;99.90
27276;DHT22;14772;47.398;8.080;2022-11-20T17:55:58;9.70;99.90
27276;DHT22;14772;47.398;8.080;2022-11-20T18:00:55;9.30;99.90
27276;DHT22;14772;47.398;8.080;2022-11-20T18:05:52;9.40;99.90
27276;DHT22;14772;47.398;8.080;2022-11-20T18:10:49;9.50;99.90
27276;DHT22;14772;47.398;8.080;2022-11-20T18:15:47;9.20;99.90
27276;DHT22;14772;47.398;8.080;2022-11-20T18:20:44;9.10;99.90
27276;DHT22;14772;47.398;8.080;2022-11-20T18:25:47;9.30;99.90
27276;DHT22;14772;47.398;8.080;2022-11-20T18:30:44;9.30;99.90
27276;DHT22;14772;47.398;8.080;2022-11-20T18:35:42;9.40;99.90
27276;DHT22;14772;47.398;8.080;2022-11-20T18:40:39;9.20;99.90
27276;DHT22;14772;47.398;8.080;2022-11-20T18:45:36;9.00;99.90
27276;DHT22;14772;47.398;8.080;2022-11-20T18:50:33;9.20;99.90
27276;DHT22;14772;47.398;8.080;2022-11-20T18:55:30;9.30;99.90
27276;DHT22;14772;47.398;8.080;2022-11-20T19:00:28;9.30;99.90
27276;DHT22;14772;47.398;8.080;2022-11-20T19:05:25;8.90;99.90
27276;DHT22;14772;47.398;8.080;2022-11-20T19:10:22;8.70;99.90
27276;DHT22;14772;47.398;8.080;2022-11-20T19:15:19;8.70;99.90
27276;DHT22;14772;47.398;8.080;2022-11-20T19:20:16;8.60;99.90
27276;DHT22;14772;47.398;8.080;2022-11-20T19:25:14;8.50;99.90
27276;DHT22;14772;47.398;8.080;2022-11-20T19:30:12;8.40;99.90
27276;DHT22;14772;47.398;8.080;2022-11-20T19:35:10;8.40;99.90
27276;DHT22;14772;47.398;8.080;2022-11-20T19:40:08;8.30;99.90
27276;DHT22;14772;47.398;8.080;2022-11-20T19:45:08;8.00;99.90
27276;DHT22;14772;47.398;8.080;2022-11-20T19:50:07;7.80;99.90
27276;DHT22;14772;47.398;8.080;2022-11-20T19:55:04;7.60;99.90
27276;DHT22;14772;47.398;8.080;2022-11-20T20:00:02;7.50;99.90
27276;DHT22;14772;47.398;8.080;2022-11-20T20:04:59;7.40;99.90
27276;DHT22;14772;47.398;8.080;2022-11-20T20:09:56;7.30;99.90
27276;DHT22;14772;47.398;8.080;2022-11-20T20:14:53;7.30;99.90
27276;DHT22;14772;47.398;8.080;2022-11-20T20:19:51;7.20;99.90
27276;DHT22;14772;47.398;8.080;2022-11-20T20:24:48;7.30;99.90
27276;DHT22;14772;47.398;8.080;2022-11-20T20:29:45;7.30;99.90
27276;DHT22;14772;47.398;8.080;2022-11-20T20:34:42;7.10;99.90
27276;DHT22;14772;47.398;8.080;2022-11-20T20:39:39;7.10;99.90
27276;DHT22;14772;47.398;8.080;2022-11-20T20:44:37;7.00;99.90
27276;DHT22;14772;47.398;8.080;2022-11-20T20:49:34;7.00;99.90
27276;DHT22;14772;47.398;8.080;2022-11-20T20:54:31;7.00;99.90
27276;DHT22;14772;47.398;8.080;2022-11-20T20:59:28;7.00;99.90
27276;DHT22;14772;47.398;8.080;2022-11-20T21:04:25;7.10;99.90
27276;DHT22;14772;47.398;8.080;2022-11-20T21:09:23;7.20;99.90
27276;DHT22;14772;47.398;8.080;2022-11-20T21:14:20;7.20;99.90
27276;DHT22;14772;47.398;8.080;2022-11-20T21:19:17;7.20;99.90
27276;DHT22;14772;47.398;8.080;2022-11-20T21:24:14;7.20;99.90
27276;DHT22;14772;47.398;8.080;2022-11-20T21:29:12;7.20;99.90
27276;DHT22;14772;47.398;8.080;2022-11-20T21:34:10;7.10;99.90
27276;DHT22;14772;47.398;8.080;2022-11-20T21:39:09;7.10;99.90
27276;DHT22;14772;47.398;8.080;2022-11-20T21:44:10;7.10;99.90
27276;DHT22;14772;47.398;8.080;2022-11-20T21:49:08;7.10;99.90
27276;DHT22;14772;47.398;8.080;2022-11-20T21:54:05;7.20;99.90
27276;DHT22;14772;47.398;8.080;2022-11-20T21:59:02;7.20;99.90
27276;DHT22;14772;47.398;8.080;2022-11-20T22:04:01;7.20;99.90
27276;DHT22;14772;47.398;8.080;2022-11-20T22:08:58;7.20;99.90
27276;DHT22;14772;47.398;8.080;2022-11-20T22:13:56;7.20;99.90
27276;DHT22;14772;47.398;8.080;2022-11-20T22:18:54;7.30;99.90
27276;DHT22;14772;47.398;8.080;2022-11-20T22:23:52;7.20;99.90
27276;DHT22;14772;47.398;8.080;2022-11-20T22:28:51;7.30;99.90
27276;DHT22;14772;47.398;8.080;2022-11-20T22:33:49;7.20;99.90
27276;DHT22;14772;47.398;8.080;2022-11-20T22:38:47;7.30;99.90
27276;DHT22;14772;47.398;8.080;2022-11-20T22:43:45;7.30;99.90
27276;DHT22;14772;47.398;8.080;2022-11-20T22:48:47;7.30;99.90
27276;DHT22;14772;47.398;8.080;2022-11-20T22:53:43;7.40;99.90
27276;DHT22;14772;47.398;8.080;2022-11-20T22:58:42;7.40;99.90
27276;DHT22;14772;47.398;8.080;2022-11-20T23:03:40;7.50;99.90
27276;DHT22;14772;47.398;8.080;2022-11-20T23:08:39;7.50;99.90
27276;DHT22;14772;47.398;8.080;2022-11-20T23:13:37;7.50;99.90
27276;DHT22;14772;47.398;8.080;2022-11-20T23:18:35;7.50;99.90
27276;DHT22;14772;47.398;8.080;2022-11-20T23:23:32;7.50;99.90
27276;DHT22;14772;47.398;8.080;2022-11-20T23:28:29;7.50;99.90
27276;DHT22;14772;47.398;8.080;2022-11-20T23:33:27;7.50;99.90
27276;DHT22;14772;47.398;8.080;2022-11-20T23:38:24;7.50;99.90
27276;DHT22;14772;47.398;8.080;2022-11-20T23:43:21;7.50;99.90
27276;DHT22;14772;47.398;8.080;2022-11-20T23:48:19;7.40;99.90
27276;DHT22;14772;47.398;8.080;2022-11-20T23:53:17;7.40;99.90
27276;DHT22;14772;47.398;8.080;2022-11-20T23:58:15;7.50;99.90
